sensor_id;sensor_type;location;lat;lon;timestamp;pressure;altitude;pressure_sealevel;temperature;humidity
27294;BME280;14785;52.556;13.430;2023-04-01T00:00:55;98889.91;;;13.01;100.00
27294;BME280;14785;52.556;13.430;2023-04-01T00:03:21;98884.97;;;12.61;100.00
27294;BME280;14785;52.556;13.430;2023-04-01T00:05:47;98889.59;;;12.28;100.00
27294;BME280;14785;52.556;13.430;2023-04-01T00:08:13;98898.69;;;12.01;100.00
27294;BME280;14785;52.556;13.430;2023-04-01T00:10:38;98901.13;;;12.09;100.00
27294;BME280;14785;52.556;13.430;2023-04-01T00:13:07;98905.06;;;11.60;100.00
27294;BME280;14785;52.556;13.430;2023-04-01T00:15:33;98907.19;;;12.42;100.00
27294;BME280;14785;52.556;13.430;2023-04-01T00:17:59;98903.22;;;11.68;100.00
27294;BME280;14785;52.556;13.430;2023-04-01T00:20:24;98898.50;;;11.96;100.00
27294;BME280;14785;52.556;13.430;2023-04-01T00:22:50;98897.44;;;12.10;100.00
27294;BME280;14785;52.556;13.430;2023-04-01T00:25:16;98897.59;;;12.28;100.00
27294;BME280;14785;52.556;13.430;2023-04-01T00:27:41;98887.22;;;11.94;100.00
27294;BME280;14785;52.556;13.430;2023-04-01T00:30:07;98895.22;;;11.41;100.00
27294;BME280;14785;52.556;13.430;2023-04-01T00:32:34;98898.75;;;11.75;100.00
27294;BME280;14785;52.556;13.430;2023-04-01T00:35:00;98903.69;;;12.41;100.00
27294;BME280;14785;52.556;13.430;2023-04-01T00:37:26;98889.69;;;11.89;100.00
27294;BME280;14785;52.556;13.430;2023-04-01T00:39:52;98900.53;;;12.64;100.00
27294;BME280;14785;52.556;13.430;2023-04-01T00:42:18;98890.13;;;11.66;100.00
27294;BME280;14785;52.556;13.430;2023-04-01T00:44:47;98891.75;;;11.74;100.00
27294;BME280;14785;52.556;13.430;2023-04-01T00:47:13;98899.47;;;12.21;100.00
27294;BME280;14785;52.556;13.430;2023-04-01T00:49:40;98897.06;;;11.60;100.00
27294;BME280;14785;52.556;13.430;2023-04-01T00:52:08;98900.56;;;11.28;100.00
27294;BME280;14785;52.556;13.430;2023-04-01T00:54:36;98907.47;;;11.03;100.00
27294;BME280;14785;52.556;13.430;2023-04-01T00:57:05;98903.63;;;11.51;100.00
27294;BME280;14785;52.556;13.430;2023-04-01T00:59:36;98911.38;;;11.46;100.00
27294;BME280;14785;52.556;13.430;2023-04-01T01:02:05;98906.06;;;11.33;100.00
27294;BME280;14785;52.556;13.430;2023-04-01T01:04:34;98911.38;;;11.33;100.00
27294;BME280;14785;52.556;13.430;2023-04-01T01:10:10;98904.03;;;11.55;100.00
27294;BME280;14785;52.556;13.430;2023-04-01T01:12:40;98911.22;;;11.61;100.00
27294;BME280;14785;52.556;13.430;2023-04-01T01:18:05;98908.94;;;11.32;100.00
27294;BME280;14785;52.556;13.430;2023-04-01T01:23:41;98910.16;;;11.42;100.00
27294;BME280;14785;52.556;13.430;2023-04-01T01:37:22;98900.34;;;12.59;100.00
27294;BME280;14785;52.556;13.430;2023-04-01T01:39:54;98901.09;;;12.28;100.00
27294;BME280;14785;52.556;13.430;2023-04-01T01:42:22;98902.38;;;12.00;100.00
27294;BME280;14785;52.556;13.430;2023-04-01T01:44:52;98908.09;;;12.16;100.00
27294;BME280;14785;52.556;13.430;2023-04-01T01:47:19;98913.25;;;13.12;100.00
27294;BME280;14785;52.556;13.430;2023-04-01T01:49:44;98902.81;;;12.98;100.00
27294;BME280;14785;52.556;13.430;2023-04-01T01:52:12;98898.53;;;13.28;100.00
27294;BME280;14785;52.556;13.430;2023-04-01T01:54:52;98904.03;;;11.81;100.00
27294;BME280;14785;52.556;13.430;2023-04-01T01:57:22;98911.19;;;11.54;100.00
27294;BME280;14785;52.556;13.430;2023-04-01T01:59:50;98916.31;;;11.36;100.00
27294;BME280;14785;52.556;13.430;2023-04-01T02:02:18;98926.97;;;11.36;100.00
27294;BME280;14785;52.556;13.430;2023-04-01T02:04:44;98930.91;;;11.67;100.00
27294;BME280;14785;52.556;13.430;2023-04-01T02:07:16;98930.25;;;11.38;100.00
27294;BME280;14785;52.556;13.430;2023-04-01T02:09:43;98934.75;;;11.51;100.00
27294;BME280;14785;52.556;13.430;2023-04-01T02:12:11;98927.38;;;11.59;100.00
27294;BME280;14785;52.556;13.430;2023-04-01T02:14:47;98937.19;;;11.52;100.00
27294;BME280;14785;52.556;13.430;2023-04-01T02:17:20;98939.06;;;11.52;100.00
27294;BME280;14785;52.556;13.430;2023-04-01T02:20:02;98941.69;;;11.39;100.00
27294;BME280;14785;52.556;13.430;2023-04-01T02:22:36;98947.41;;;11.23;100.00
27294;BME280;14785;52.556;13.430;2023-04-01T02:25:09;98952.13;;;11.27;100.00
27294;BME280;14785;52.556;13.430;2023-04-01T02:27:35;98947.34;;;11.03;100.00
27294;BME280;14785;52.556;13.430;2023-04-01T02:30:00;98954.53;;;11.03;100.00
27294;BME280;14785;52.556;13.430;2023-04-01T02:32:27;98960.94;;;11.28;100.00
27294;BME280;14785;52.556;13.430;2023-04-01T02:34:55;98960.66;;;11.03;100.00
27294;BME280;14785;52.556;13.430;2023-04-01T02:37:21;98963.88;;;11.79;100.00
27294;BME280;14785;52.556;13.430;2023-04-01T02:39:47;98959.31;;;11.46;100.00
27294;BME280;14785;52.556;13.430;2023-04-01T02:42:13;98958.09;;;11.42;100.00
27294;BME280;14785;52.556;13.430;2023-04-01T02:44:39;98968.50;;;11.18;100.00
27294;BME280;14785;52.556;13.430;2023-04-01T02:47:04;98973.56;;;11.06;100.00
27294;BME280;14785;52.556;13.430;2023-04-01T02:49:29;98972.00;;;11.38;100.00
27294;BME280;14785;52.556;13.430;2023-04-01T02:51:56;98972.03;;;11.57;100.00
27294;BME280;14785;52.556;13.430;2023-04-01T02:54:21;98974.03;;;11.29;100.00
27294;BME280;14785;52.556;13.430;2023-04-01T02:56:46;98976.50;;;11.44;100.00
27294;BME280;14785;52.556;13.430;2023-04-01T02:59:12;98974.13;;;12.08;100.00
27294;BME280;14785;52.556;13.430;2023-04-01T03:01:37;98978.22;;;12.04;100.00
27294;BME280;14785;52.556;13.430;2023-04-01T03:04:04;98976.13;;;11.60;100.00
27294;BME280;14785;52.556;13.430;2023-04-01T03:06:29;98972.47;;;11.68;100.00
27294;BME280;14785;52.556;13.430;2023-04-01T03:08:55;98967.09;;;12.33;100.00
27294;BME280;14785;52.556;13.430;2023-04-01T03:11:20;98963.22;;;12.16;100.00
27294;BME280;14785;52.556;13.430;2023-04-01T03:13:46;98962.00;;;12.12;100.00
27294;BME280;14785;52.556;13.430;2023-04-01T03:16:11;98958.13;;;11.62;100.00
27294;BME280;14785;52.556;13.430;2023-04-01T03:18:37;98972.06;;;11.64;100.00
27294;BME280;14785;52.556;13.430;2023-04-01T03:21:20;98966.94;;;12.02;100.00
27294;BME280;14785;52.556;13.430;2023-04-01T03:23:46;98966.53;;;11.79;100.00
27294;BME280;14785;52.556;13.430;2023-04-01T03:26:12;98969.22;;;11.79;100.00
27294;BME280;14785;52.556;13.430;2023-04-01T03:28:38;98973.63;;;11.32;100.00
27294;BME280;14785;52.556;13.430;2023-04-01T03:31:04;98979.88;;;11.66;100.00
27294;BME280;14785;52.556;13.430;2023-04-01T03:33:31;98982.63;;;11.31;100.00
27294;BME280;14785;52.556;13.430;2023-04-01T03:35:56;98992.03;;;11.27;100.00
27294;BME280;14785;52.556;13.430;2023-04-01T03:38:21;98979.78;;;11.39;100.00
27294;BME280;14785;52.556;13.430;2023-04-01T03:40:47;98981.47;;;12.19;100.00
27294;BME280;14785;52.556;13.430;2023-04-01T03:43:12;98976.88;;;12.52;100.00
27294;BME280;14785;52.556;13.430;2023-04-01T03:45:45;98964.81;;;12.43;100.00
27294;BME280;14785;52.556;13.430;2023-04-01T03:48:11;98984.19;;;12.76;100.00
27294;BME280;14785;52.556;13.430;2023-04-01T03:50:37;98964.69;;;12.18;100.00
27294;BME280;14785;52.556;13.430;2023-04-01T03:53:02;98963.81;;;12.37;100.00
27294;BME280;14785;52.556;13.430;2023-04-01T03:55:28;98976.09;;;12.38;100.00
27294;BME280;14785;52.556;13.430;2023-04-01T03:57:53;98980.66;;;12.18;100.00
27294;BME280;14785;52.556;13.430;2023-04-01T04:00:19;98984.06;;;12.58;100.00
27294;BME280;14785;52.556;13.430;2023-04-01T04:02:44;98974.44;;;12.44;100.00
27294;BME280;14785;52.556;13.430;2023-04-01T04:05:11;98979.63;;;12.89;100.00
27294;BME280;14785;52.556;13.430;2023-04-01T04:07:38;98979.84;;;12.88;100.00
27294;BME280;14785;52.556;13.430;2023-04-01T04:10:04;98968.91;;;13.09;100.00
27294;BME280;14785;52.556;13.430;2023-04-01T04:12:30;98975.34;;;12.18;100.00
27294;BME280;14785;52.556;13.430;2023-04-01T04:14:55;98988.31;;;12.72;100.00
27294;BME280;14785;52.556;13.430;2023-04-01T04:17:20;98988.47;;;11.81;100.00
27294;BME280;14785;52.556;13.430;2023-04-01T04:19:46;98988.44;;;12.07;100.00
27294;BME280;14785;52.556;13.430;2023-04-01T04:22:11;99001.16;;;11.92;100.00
27294;BME280;14785;52.556;13.430;2023-04-01T04:24:37;99003.00;;;11.98;100.00
27294;BME280;14785;52.556;13.430;2023-04-01T04:27:03;98999.09;;;12.26;100.00
27294;BME280;14785;52.556;13.430;2023-04-01T04:29:29;98999.00;;;12.72;100.00
27294;BME280;14785;52.556;13.430;2023-04-01T04:31:54;98999.84;;;12.66;100.00
27294;BME280;14785;52.556;13.430;2023-04-01T04:34:20;98998.28;;;12.13;100.00
27294;BME280;14785;52.556;13.430;2023-04-01T04:36:47;99008.94;;;11.74;100.00
27294;BME280;14785;52.556;13.430;2023-04-01T04:39:13;99012.22;;;11.69;100.00
27294;BME280;14785;52.556;13.430;2023-04-01T04:41:39;99018.38;;;12.22;100.00
27294;BME280;14785;52.556;13.430;2023-04-01T04:44:05;99021.16;;;11.48;100.00
27294;BME280;14785;52.556;13.430;2023-04-01T04:46:31;99023.72;;;11.96;100.00
27294;BME280;14785;52.556;13.430;2023-04-01T04:48:56;99022.69;;;12.23;100.00
27294;BME280;14785;52.556;13.430;2023-04-01T04:51:22;99027.00;;;11.91;100.00
27294;BME280;14785;52.556;13.430;2023-04-01T04:53:48;99025.34;;;12.36;100.00
27294;BME280;14785;52.556;13.430;2023-04-01T04:56:21;99027.19;;;11.83;100.00
27294;BME280;14785;52.556;13.430;2023-04-01T04:58:48;99025.28;;;12.62;100.00
27294;BME280;14785;52.556;13.430;2023-04-01T05:01:16;99031.03;;;11.61;100.00
27294;BME280;14785;52.556;13.430;2023-04-01T05:03:42;99034.19;;;12.17;100.00
27294;BME280;14785;52.556;13.430;2023-04-01T05:06:09;99030.66;;;12.29;100.00
27294;BME280;14785;52.556;13.430;2023-04-01T05:08:35;99032.38;;;12.94;100.00
27294;BME280;14785;52.556;13.430;2023-04-01T05:11:01;99023.16;;;12.90;100.00
27294;BME280;14785;52.556;13.430;2023-04-01T05:13:27;99017.91;;;12.57;100.00
27294;BME280;14785;52.556;13.430;2023-04-01T05:15:53;99024.06;;;12.58;100.00
27294;BME280;14785;52.556;13.430;2023-04-01T05:18:18;99024.53;;;12.22;100.00
27294;BME280;14785;52.556;13.430;2023-04-01T05:20:51;99026.00;;;13.01;100.00
27294;BME280;14785;52.556;13.430;2023-04-01T05:23:18;99023.53;;;13.44;100.00
27294;BME280;14785;52.556;13.430;2023-04-01T05:25:46;99011.41;;;13.48;100.00
27294;BME280;14785;52.556;13.430;2023-04-01T05:28:12;99019.88;;;13.70;100.00
27294;BME280;14785;52.556;13.430;2023-04-01T05:30:40;99011.31;;;12.73;100.00
27294;BME280;14785;52.556;13.430;2023-04-01T05:33:06;99025.31;;;13.19;100.00
27294;BME280;14785;52.556;13.430;2023-04-01T05:35:31;99023.72;;;13.49;100.00
27294;BME280;14785;52.556;13.430;2023-04-01T05:37:56;99028.91;;;13.75;100.00
27294;BME280;14785;52.556;13.430;2023-04-01T05:40:23;99027.06;;;13.38;100.00
27294;BME280;14785;52.556;13.430;2023-04-01T05:42:48;99025.34;;;13.50;100.00
27294;BME280;14785;52.556;13.430;2023-04-01T05:45:13;99027.66;;;13.71;100.00
27294;BME280;14785;52.556;13.430;2023-04-01T05:47:41;99026.53;;;13.92;100.00
27294;BME280;14785;52.556;13.430;2023-04-01T05:50:09;99025.16;;;14.07;100.00
27294;BME280;14785;52.556;13.430;2023-04-01T05:52:36;99020.28;;;14.22;100.00
27294;BME280;14785;52.556;13.430;2023-04-01T05:55:01;99021.09;;;14.29;100.00
27294;BME280;14785;52.556;13.430;2023-04-01T05:57:27;99027.06;;;14.00;100.00
27294;BME280;14785;52.556;13.430;2023-04-01T05:59:52;99031.72;;;14.11;100.00
27294;BME280;14785;52.556;13.430;2023-04-01T06:02:18;99024.97;;;14.33;100.00
27294;BME280;14785;52.556;13.430;2023-04-01T06:04:44;99033.94;;;14.14;100.00
27294;BME280;14785;52.556;13.430;2023-04-01T06:07:18;99040.63;;;12.73;100.00
27294;BME280;14785;52.556;13.430;2023-04-01T06:09:45;99044.47;;;13.03;100.00
27294;BME280;14785;52.556;13.430;2023-04-01T06:12:33;99049.97;;;11.99;100.00
27294;BME280;14785;52.556;13.430;2023-04-01T06:15:33;99063.91;;;12.27;100.00
27294;BME280;14785;52.556;13.430;2023-04-01T06:23:36;99071.22;;;12.57;100.00
27294;BME280;14785;52.556;13.430;2023-04-01T06:37:00;99073.91;;;14.03;100.00
27294;BME280;14785;52.556;13.430;2023-04-01T06:42:24;99066.25;;;14.37;100.00
27294;BME280;14785;52.556;13.430;2023-04-01T06:47:46;99068.09;;;14.61;100.00
27294;BME280;14785;52.556;13.430;2023-04-01T06:50:27;99067.22;;;14.67;100.00
27294;BME280;14785;52.556;13.430;2023-04-01T06:55:43;99068.84;;;14.68;100.00
27294;BME280;14785;52.556;13.430;2023-04-01T06:58:34;99077.94;;;14.67;100.00
27294;BME280;14785;52.556;13.430;2023-04-01T07:01:06;99077.41;;;14.59;100.00
27294;BME280;14785;52.556;13.430;2023-04-01T07:03:42;99073.41;;;14.68;100.00
27294;BME280;14785;52.556;13.430;2023-04-01T07:08:54;99075.28;;;14.85;100.00
27294;BME280;14785;52.556;13.430;2023-04-01T07:11:28;99072.31;;;14.93;100.00
27294;BME280;14785;52.556;13.430;2023-04-01T07:14:12;99083.25;;;14.92;100.00
27294;BME280;14785;52.556;13.430;2023-04-01T07:16:48;99075.66;;;14.89;100.00
27294;BME280;14785;52.556;13.430;2023-04-01T07:24:44;99088.63;;;14.67;100.00
27294;BME280;14785;52.556;13.430;2023-04-01T07:27:12;99089.50;;;14.61;100.00
27294;BME280;14785;52.556;13.430;2023-04-01T07:29:38;99086.56;;;14.69;100.00
27294;BME280;14785;52.556;13.430;2023-04-01T07:32:07;99091.53;;;14.66;100.00
27294;BME280;14785;52.556;13.430;2023-04-01T07:35:02;99099.56;;;14.66;100.00
27294;BME280;14785;52.556;13.430;2023-04-01T07:37:46;99094.28;;;14.77;100.00
27294;BME280;14785;52.556;13.430;2023-04-01T07:42:59;99094.84;;;14.61;100.00
27294;BME280;14785;52.556;13.430;2023-04-01T07:58:53;99131.31;;;13.63;100.00
27294;BME280;14785;52.556;13.430;2023-04-01T08:07:03;99133.28;;;13.80;100.00
27294;BME280;14785;52.556;13.430;2023-04-01T08:12:27;99136.13;;;14.16;100.00
27294;BME280;14785;52.556;13.430;2023-04-01T08:20:33;99147.16;;;13.58;100.00
27294;BME280;14785;52.556;13.430;2023-04-01T08:23:13;99145.72;;;13.55;100.00
27294;BME280;14785;52.556;13.430;2023-04-01T08:25:51;99142.88;;;13.50;100.00
27294;BME280;14785;52.556;13.430;2023-04-01T08:30:55;99157.28;;;13.42;100.00
27294;BME280;14785;52.556;13.430;2023-04-01T08:33:27;99154.84;;;13.34;100.00
27294;BME280;14785;52.556;13.430;2023-04-01T08:35:59;99168.25;;;13.21;100.00
27294;BME280;14785;52.556;13.430;2023-04-01T08:40:59;99160.94;;;13.55;100.00
27294;BME280;14785;52.556;13.430;2023-04-01T08:44:11;99171.50;;;13.23;100.00
27294;BME280;14785;52.556;13.430;2023-04-01T09:00:15;99183.06;;;13.68;100.00
27294;BME280;14785;52.556;13.430;2023-04-01T09:08:36;99176.09;;;13.61;100.00
27294;BME280;14785;52.556;13.430;2023-04-01T09:19:22;99184.53;;;13.64;100.00
27294;BME280;14785;52.556;13.430;2023-04-01T09:21:52;99195.13;;;13.33;100.00
27294;BME280;14785;52.556;13.430;2023-04-01T09:27:27;99196.69;;;13.60;100.00
27294;BME280;14785;52.556;13.430;2023-04-01T09:43:24;99214.34;;;13.55;100.00
27294;BME280;14785;52.556;13.430;2023-04-01T09:46:19;99224.41;;;13.59;100.00
27294;BME280;14785;52.556;13.430;2023-04-01T09:54:13;99231.69;;;12.93;100.00
27294;BME280;14785;52.556;13.430;2023-04-01T10:20:35;99255.53;;;13.21;100.00
27294;BME280;14785;52.556;13.430;2023-04-01T10:35:28;99255.13;;;13.11;100.00
27294;BME280;14785;52.556;13.430;2023-04-01T11:11:09;99280.53;;;12.94;100.00
27294;BME280;14785;52.556;13.430;2023-04-01T11:22:07;99292.28;;;13.32;100.00
27294;BME280;14785;52.556;13.430;2023-04-01T11:27:46;99290.78;;;12.90;100.00
27294;BME280;14785;52.556;13.430;2023-04-01T11:30:33;99296.56;;;13.46;100.00
27294;BME280;14785;52.556;13.430;2023-04-01T11:33:05;99302.97;;;13.32;100.00
27294;BME280;14785;52.556;13.430;2023-04-01T11:35:56;99307.66;;;13.43;100.00
27294;BME280;14785;52.556;13.430;2023-04-01T11:44:18;99313.41;;;12.94;100.00
27294;BME280;14785;52.556;13.430;2023-04-01T11:47:22;99310.53;;;12.96;100.00
27294;BME280;14785;52.556;13.430;2023-04-01T11:58:00;99331.78;;;12.63;100.00
27294;BME280;14785;52.556;13.430;2023-04-01T12:06:51;99337.97;;;12.64;100.00
27294;BME280;14785;52.556;13.430;2023-04-01T12:18:00;99353.19;;;12.76;100.00
27294;BME280;14785;52.556;13.430;2023-04-01T12:23:54;99368.47;;;13.15;100.00
27294;BME280;14785;52.556;13.430;2023-04-01T12:35:20;99375.75;;;12.74;100.00
27294;BME280;14785;52.556;13.430;2023-04-01T12:46:52;99381.84;;;12.55;100.00
27294;BME280;14785;52.556;13.430;2023-04-01T12:58:07;99403.00;;;12.16;100.00
27294;BME280;14785;52.556;13.430;2023-04-01T13:08:55;99416.50;;;12.08;100.00
27294;BME280;14785;52.556;13.430;2023-04-01T13:14:30;99410.59;;;12.59;100.00
27294;BME280;14785;52.556;13.430;2023-04-01T13:19:41;99414.75;;;12.75;100.00
27294;BME280;14785;52.556;13.430;2023-04-01T13:22:25;99416.16;;;12.64;100.00
27294;BME280;14785;52.556;13.430;2023-04-01T13:27:34;99424.53;;;13.02;100.00
27294;BME280;14785;52.556;13.430;2023-04-01T13:35:30;99445.69;;;12.63;100.00
27294;BME280;14785;52.556;13.430;2023-04-01T13:40:54;99458.34;;;12.48;100.00
27294;BME280;14785;52.556;13.430;2023-04-01T13:43:29;99457.31;;;12.49;100.00
27294;BME280;14785;52.556;13.430;2023-04-01T13:46:17;99454.97;;;12.33;100.00
27294;BME280;14785;52.556;13.430;2023-04-01T13:52:12;99461.41;;;12.51;100.00
27294;BME280;14785;52.556;13.430;2023-04-01T14:17:02;99481.72;;;12.12;100.00
27294;BME280;14785;52.556;13.430;2023-04-01T14:19:34;99482.09;;;12.09;100.00
27294;BME280;14785;52.556;13.430;2023-04-01T14:33:05;99497.25;;;12.08;100.00
27294;BME280;14785;52.556;13.430;2023-04-01T14:35:41;99500.38;;;12.12;100.00
27294;BME280;14785;52.556;13.430;2023-04-01T14:46:30;99519.19;;;11.83;100.00
27294;BME280;14785;52.556;13.430;2023-04-01T14:52:17;99525.19;;;12.12;100.00
27294;BME280;14785;52.556;13.430;2023-04-01T14:54:48;99522.50;;;12.40;100.00
27294;BME280;14785;52.556;13.430;2023-04-01T14:57:23;99519.88;;;12.19;100.00
27294;BME280;14785;52.556;13.430;2023-04-01T15:05:13;99532.44;;;11.97;100.00
27294;BME280;14785;52.556;13.430;2023-04-01T15:07:56;99542.34;;;12.03;100.00
27294;BME280;14785;52.556;13.430;2023-04-01T15:10:39;99547.16;;;12.48;100.00
27294;BME280;14785;52.556;13.430;2023-04-01T15:24:24;99563.09;;;11.15;100.00
27294;BME280;14785;52.556;13.430;2023-04-01T15:27:01;99575.41;;;11.16;100.00
27294;BME280;14785;52.556;13.430;2023-04-01T15:29:52;99576.47;;;11.36;100.00
27294;BME280;14785;52.556;13.430;2023-04-01T15:35:13;99575.16;;;10.97;100.00
27294;BME280;14785;52.556;13.430;2023-04-01T15:49:04;99600.38;;;11.15;100.00
27294;BME280;14785;52.556;13.430;2023-04-01T16:00:21;99610.03;;;10.73;100.00
27294;BME280;14785;52.556;13.430;2023-04-01T16:11:25;99623.78;;;11.05;100.00
27294;BME280;14785;52.556;13.430;2023-04-01T16:21:59;99652.53;;;10.58;100.00
27294;BME280;14785;52.556;13.430;2023-04-01T16:27:05;99663.50;;;11.21;100.00
27294;BME280;14785;52.556;13.430;2023-04-01T16:32:42;99664.97;;;11.09;100.00
27294;BME280;14785;52.556;13.430;2023-04-01T16:35:49;99671.38;;;11.00;100.00
27294;BME280;14785;52.556;13.430;2023-04-01T16:38:21;99676.19;;;10.53;100.00
27294;BME280;14785;52.556;13.430;2023-04-01T16:43:56;99677.75;;;10.03;100.00
27294;BME280;14785;52.556;13.430;2023-04-01T16:46:34;99688.94;;;10.21;100.00
27294;BME280;14785;52.556;13.430;2023-04-01T16:57:02;99710.41;;;10.11;100.00
27294;BME280;14785;52.556;13.430;2023-04-01T17:02:25;99718.09;;;10.29;100.00
27294;BME280;14785;52.556;13.430;2023-04-01T17:07:23;99732.75;;;10.47;100.00
27294;BME280;14785;52.556;13.430;2023-04-01T17:15:45;99747.69;;;9.95;100.00
27294;BME280;14785;52.556;13.430;2023-04-01T17:20:59;99759.59;;;9.99;100.00
27294;BME280;14785;52.556;13.430;2023-04-01T17:26:26;99768.69;;;9.74;100.00
27294;BME280;14785;52.556;13.430;2023-04-01T17:29:09;99771.88;;;10.00;100.00
27294;BME280;14785;52.556;13.430;2023-04-01T17:31:45;99777.44;;;9.36;100.00
27294;BME280;14785;52.556;13.430;2023-04-01T17:34:30;99782.56;;;9.92;100.00
27294;BME280;14785;52.556;13.430;2023-04-01T17:45:57;99801.03;;;9.23;100.00
27294;BME280;14785;52.556;13.430;2023-04-01T17:57:22;99811.66;;;9.15;100.00
27294;BME280;14785;52.556;13.430;2023-04-01T18:11:34;99832.38;;;8.95;100.00
27294;BME280;14785;52.556;13.430;2023-04-01T18:17:18;99840.16;;;9.29;100.00
27294;BME280;14785;52.556;13.430;2023-04-01T18:20:01;99858.09;;;9.11;100.00
27294;BME280;14785;52.556;13.430;2023-04-01T18:22:44;99848.75;;;9.31;100.00
27294;BME280;14785;52.556;13.430;2023-04-01T18:28:19;99872.84;;;8.97;100.00
27294;BME280;14785;52.556;13.430;2023-04-01T18:33:44;99872.66;;;9.39;100.00
27294;BME280;14785;52.556;13.430;2023-04-01T18:36:21;99889.56;;;8.74;100.00
27294;BME280;14785;52.556;13.430;2023-04-01T18:38:54;99890.56;;;8.89;100.00
27294;BME280;14785;52.556;13.430;2023-04-01T18:41:32;99892.56;;;8.87;100.00
27294;BME280;14785;52.556;13.430;2023-04-01T18:50:11;99913.44;;;9.06;100.00
27294;BME280;14785;52.556;13.430;2023-04-01T18:52:45;99922.25;;;9.14;100.00
27294;BME280;14785;52.556;13.430;2023-04-01T18:55:33;99929.00;;;8.77;100.00
27294;BME280;14785;52.556;13.430;2023-04-01T19:08:46;99950.22;;;8.85;100.00
27294;BME280;14785;52.556;13.430;2023-04-01T19:11:25;99954.56;;;9.02;100.00
27294;BME280;14785;52.556;13.430;2023-04-01T19:17:17;99951.09;;;8.52;100.00
27294;BME280;14785;52.556;13.430;2023-04-01T19:20:26;99954.16;;;8.73;100.00
27294;BME280;14785;52.556;13.430;2023-04-01T19:26:09;99966.09;;;8.69;100.00
27294;BME280;14785;52.556;13.430;2023-04-01T19:37:07;99979.59;;;8.50;100.00
27294;BME280;14785;52.556;13.430;2023-04-01T19:42:35;99981.72;;;8.80;100.00
27294;BME280;14785;52.556;13.430;2023-04-01T19:45:25;99992.78;;;8.83;100.00
27294;BME280;14785;52.556;13.430;2023-04-01T19:50:56;99997.94;;;8.10;100.00
27294;BME280;14785;52.556;13.430;2023-04-01T19:53:43;100004.34;;;8.33;100.00
27294;BME280;14785;52.556;13.430;2023-04-01T19:56:20;100011.41;;;8.50;100.00
27294;BME280;14785;52.556;13.430;2023-04-01T20:01:35;100019.31;;;8.42;100.00
27294;BME280;14785;52.556;13.430;2023-04-01T20:04:07;100022.19;;;8.98;100.00
27294;BME280;14785;52.556;13.430;2023-04-01T20:06:42;100024.66;;;8.50;100.00
27294;BME280;14785;52.556;13.430;2023-04-01T20:14:48;100043.53;;;8.47;100.00
27294;BME280;14785;52.556;13.430;2023-04-01T20:25:39;100077.03;;;8.56;100.00
27294;BME280;14785;52.556;13.430;2023-04-01T20:53:36;100111.69;;;8.37;100.00
27294;BME280;14785;52.556;13.430;2023-04-01T21:07:44;100134.81;;;8.27;100.00
27294;BME280;14785;52.556;13.430;2023-04-01T21:19:35;100160.31;;;7.93;100.00
27294;BME280;14785;52.556;13.430;2023-04-01T22:00:24;100223.59;;;8.31;100.00
27294;BME280;14785;52.556;13.430;2023-04-01T22:03:20;100223.66;;;8.21;100.00
27294;BME280;14785;52.556;13.430;2023-04-01T22:08:49;100236.72;;;7.88;100.00
27294;BME280;14785;52.556;13.430;2023-04-01T22:13:53;100233.91;;;7.89;100.00
27294;BME280;14785;52.556;13.430;2023-04-01T22:16:28;100238.84;;;7.57;100.00
27294;BME280;14785;52.556;13.430;2023-04-01T22:19:07;100249.59;;;7.82;100.00
27294;BME280;14785;52.556;13.430;2023-04-01T22:21:48;100250.19;;;8.12;100.00
27294;BME280;14785;52.556;13.430;2023-04-01T22:24:23;100259.75;;;8.05;100.00
27294;BME280;14785;52.556;13.430;2023-04-01T22:26:58;100259.88;;;7.86;100.00
27294;BME280;14785;52.556;13.430;2023-04-01T22:29:44;100256.69;;;8.00;100.00
27294;BME280;14785;52.556;13.430;2023-04-01T22:32:20;100260.75;;;7.76;100.00
27294;BME280;14785;52.556;13.430;2023-04-01T22:35:00;100258.47;;;7.81;100.00
27294;BME280;14785;52.556;13.430;2023-04-01T22:43:32;100268.19;;;7.91;100.00
27294;BME280;14785;52.556;13.430;2023-04-01T22:45:59;100279.44;;;7.75;100.00
27294;BME280;14785;52.556;13.430;2023-04-01T22:48:47;100281.44;;;7.63;100.00
27294;BME280;14785;52.556;13.430;2023-04-01T22:51:40;100289.28;;;7.82;100.00
27294;BME280;14785;52.556;13.430;2023-04-01T22:54:34;100293.19;;;8.06;100.00
27294;BME280;14785;52.556;13.430;2023-04-01T22:57:15;100295.47;;;7.73;100.00
27294;BME280;14785;52.556;13.430;2023-04-01T23:00:04;100296.34;;;7.92;100.00
27294;BME280;14785;52.556;13.430;2023-04-01T23:02:43;100290.41;;;7.80;100.00
27294;BME280;14785;52.556;13.430;2023-04-01T23:05:14;100302.41;;;8.02;100.00
27294;BME280;14785;52.556;13.430;2023-04-01T23:07:53;100307.47;;;7.68;100.00
27294;BME280;14785;52.556;13.430;2023-04-01T23:10:42;100310.34;;;7.11;100.00
27294;BME280;14785;52.556;13.430;2023-04-01T23:13:14;100321.66;;;7.40;100.00
27294;BME280;14785;52.556;13.430;2023-04-01T23:15:43;100312.59;;;7.69;100.00
27294;BME280;14785;52.556;13.430;2023-04-01T23:18:18;100318.31;;;8.02;100.00
27294;BME280;14785;52.556;13.430;2023-04-01T23:28:58;100327.84;;;7.95;100.00
27294;BME280;14785;52.556;13.430;2023-04-01T23:34:20;100345.94;;;7.62;100.00
27294;BME280;14785;52.556;13.430;2023-04-01T23:37:01;100343.50;;;7.78;100.00
27294;BME280;14785;52.556;13.430;2023-04-01T23:39:35;100344.94;;;7.63;100.00
27294;BME280;14785;52.556;13.430;2023-04-01T23:42:05;100348.22;;;7.84;100.00
27294;BME280;14785;52.556;13.430;2023-04-01T23:44:33;100353.31;;;7.68;100.00